Weather History for New Ulm, MN

Change the Weather History Date:

Monday, March 4, 2013

  Actual Average Record
Temperature  
Mean Temperature 27 °F -  
Max Temperature 30 °F 38 °F 65 °F (1983)
Min Temperature 24 °F 18 °F -7 °F (1952)
Degree Days  
Heating Degree Days 38    
Moisture  
Dew Point 23 °F    
Average Humidity 86    
Maximum Humidity 93    
Minimum Humidity 80    
Precipitation  
Precipitation 0.26 in - - ()
Sea Level Pressure  
Sea Level Pressure 29.89 in    
Wind  
Wind Speed 13 mph (ESE)    
Max Wind Speed 18 mph    
Max Gust Speed 24 mph    
Visibility 5 miles    
Events Snow    
Averages and records for this station are not official NWS values.
T = Trace of Precipitation, MM = Missing Value Source: NWS Daily Summary

Daily Weather History Graph

Daily Weather History Graph

Search for Another Location

Airport:

Trip Planner

Search our weather history database for the weather conditions in past years. The results will help you decide how hot, cold, wet, or windy it might be!

Date:

Astronomy

Mar. 04, 2013 Rise Set
Actual Time 6:49 AM CST 6:10 PM CST
Civil Twilight 6:20 AM CST 6:39 PM CST
Nautical Twilight 5:47 AM CST 7:13 PM CST
Astronomical Twilight 5:13 AM CST 7:46 PM CST
Moon 1:09 AM CST (3/4) 10:43 AM CST (3/4)
Length of Visible Light 12h 18m
Length of Day
11h 20m
Waning Gibbous, 52% of the Moon is Illuminated
Mar 4
Waning Gibbous
Mar 4
Last Quarter
Mar 11
New
Mar 19
First Quarter
Mar 27
Full

Hourly Weather History & Observations

Time (CST) Temp. Windchill Dew Point Humidity Pressure Visibility Wind Dir Wind Speed Gust Speed Precip Events Conditions
12:12 AM 24.8 °F 12.4 °F 21.2 °F 86% 29.91 in 2.0 mi SE 15.0 mph - N/A Snow Light Snow
12:33 AM 24.8 °F 12.4 °F 21.2 °F 86% 29.91 in 2.0 mi SE 15.0 mph 21.9 mph N/A Snow Light Snow
12:53 AM 24.8 °F 12.4 °F 21.2 °F 86% 29.90 in 2.5 mi ESE 15.0 mph - N/A Snow Light Snow
1:12 AM 24.8 °F 11.1 °F 21.2 °F 86% 29.89 in 2.0 mi ESE 18.4 mph 24.2 mph N/A Snow Light Snow
2:12 AM 24.8 °F 11.5 °F 21.2 °F 86% 29.86 in 1.0 mi ESE 17.3 mph - 0.01 in Snow Snow
2:33 AM 24.8 °F 12.9 °F 21.2 °F 86% 29.85 in 1.0 mi ESE 13.8 mph - 0.02 in Snow Snow
2:53 AM 24.8 °F 11.9 °F 21.2 °F 86% 29.85 in 1.0 mi ESE 16.1 mph - 0.03 in Snow Snow
3:33 AM 24.8 °F 13.4 °F 21.2 °F 86% 29.85 in 1.5 mi ESE 12.7 mph 18.4 mph 0.03 in Snow Light Snow
3:53 AM 24.8 °F 14.6 °F 21.2 °F 86% 29.86 in 1.2 mi ESE 10.4 mph - 0.04 in Snow Light Snow
4:12 AM 24.8 °F 13.4 °F 21.2 °F 86% 29.85 in 1.5 mi East 12.7 mph - 0.01 in Snow Light Snow
4:33 AM 24.8 °F 12.9 °F 21.2 °F 86% 29.84 in 1.2 mi East 13.8 mph 18.4 mph 0.02 in Snow Light Snow
5:13 AM 24.8 °F 12.4 °F 21.2 °F 86% 29.83 in 2.0 mi East 15.0 mph 21.9 mph N/A Snow Light Snow
5:33 AM 24.8 °F 13.4 °F 21.2 °F 86% 29.85 in 2.0 mi ESE 12.7 mph - N/A Snow Light Snow
5:53 AM 24.8 °F 11.9 °F 21.2 °F 86% 29.84 in 4.0 mi ESE 16.1 mph 20.7 mph N/A Snow Light Snow
6:12 AM 24.8 °F 12.9 °F 21.2 °F 86% 29.85 in 3.0 mi ESE 13.8 mph - N/A Snow Light Snow
6:33 AM 24.8 °F 12.9 °F 21.2 °F 86% 29.85 in 7.0 mi ESE 13.8 mph 17.3 mph N/A Snow Light Snow
6:53 AM 24.8 °F 14.0 °F 21.2 °F 86% 29.86 in 10.0 mi ESE 11.5 mph - N/A Snow Light Snow
7:12 AM 24.8 °F 11.9 °F 21.2 °F 86% 29.86 in 10.0 mi ESE 16.1 mph - N/A   Scattered Clouds
7:33 AM 26.6 °F 15.2 °F 21.2 °F 80% 29.87 in 1.8 mi ESE 13.8 mph - N/A Snow Light Snow
7:53 AM 26.6 °F 14.7 °F 21.2 °F 80% 29.86 in 10.0 mi ESE 15.0 mph 20.7 mph N/A   Scattered Clouds
8:13 AM 26.6 °F 16.2 °F 21.2 °F 80% 29.87 in 10.0 mi ESE 11.5 mph - N/A   Scattered Clouds
8:33 AM 26.6 °F 13.8 °F 21.2 °F 80% 29.86 in 10.0 mi ESE 17.3 mph - N/A   Scattered Clouds
8:53 AM 26.6 °F 15.2 °F 21.2 °F 80% 29.86 in 10.0 mi ESE 13.8 mph - N/A   Clear
9:12 AM 26.6 °F 15.2 °F 21.2 °F 80% 29.87 in 10.0 mi SE 13.8 mph - N/A   Clear
9:33 AM 26.6 °F 14.3 °F 21.2 °F 80% 29.87 in 10.0 mi SE 16.1 mph 21.9 mph N/A   Clear
9:53 AM 26.6 °F 15.2 °F 21.2 °F 80% 29.87 in 10.0 mi SE 13.8 mph - N/A   Scattered Clouds
10:12 AM 26.6 °F 13.8 °F 21.2 °F 80% 29.87 in 10.0 mi SE 17.3 mph 23.0 mph N/A   Clear
10:33 AM 26.6 °F 15.2 °F 21.2 °F 80% 29.88 in 10.0 mi SE 13.8 mph 21.9 mph N/A   Clear
10:53 AM 28.4 °F 18.0 °F 23.0 °F 80% 29.88 in 10.0 mi SE 12.7 mph - N/A   Clear
11:12 AM 28.4 °F 18.0 °F 23.0 °F 80% 29.88 in 10.0 mi ESE 12.7 mph 18.4 mph N/A   Clear
11:33 AM 28.4 °F 15.8 °F 23.0 °F 80% 29.87 in 10.0 mi ESE 18.4 mph 23.0 mph N/A   Clear
11:53 AM 28.4 °F 17.5 °F 23.0 °F 80% 29.88 in 10.0 mi ESE 13.8 mph - N/A   Clear
12:13 PM 28.4 °F 18.0 °F 23.0 °F 80% 29.88 in 10.0 mi SE 12.7 mph 20.7 mph N/A   Clear
12:33 PM 28.4 °F 17.0 °F 24.8 °F 86% 29.88 in 10.0 mi SE 15.0 mph - N/A   Clear
12:52 PM 28.4 °F 19.1 °F 24.8 °F 86% 29.88 in 10.0 mi SE 10.4 mph - N/A   Clear
1:13 PM 28.4 °F 18.0 °F 24.8 °F 86% 29.88 in 10.0 mi SE 12.7 mph - N/A   Clear
1:33 PM 28.4 °F 18.5 °F 24.8 °F 86% 29.88 in 7.0 mi SE 11.5 mph - N/A   Clear
1:52 PM 28.4 °F 18.0 °F 24.8 °F 86% 29.88 in 5.0 mi SE 12.7 mph 18.4 mph N/A   Clear
2:13 PM 30.2 °F 20.8 °F 24.8 °F 80% 29.88 in 7.0 mi SE 11.5 mph - N/A   Clear
2:32 PM 30.2 °F 20.8 °F 24.8 °F 80% 29.88 in 5.0 mi SE 11.5 mph - N/A   Haze
2:53 PM 30.2 °F 20.8 °F 24.8 °F 80% 29.88 in 5.0 mi SE 11.5 mph - N/A   Haze
3:13 PM 30.2 °F 21.3 °F 26.6 °F 86% 29.88 in 7.0 mi SE 10.4 mph - N/A   Clear
3:32 PM 30.2 °F 21.9 °F 26.6 °F 86% 29.89 in 7.0 mi SE 9.2 mph - N/A   Clear
3:53 PM 30.2 °F 22.6 °F 26.6 °F 86% 29.89 in 7.0 mi East 8.1 mph - N/A   Clear
4:13 PM 28.4 °F 19.7 °F 24.8 °F 86% 29.89 in 5.0 mi East 9.2 mph - N/A   Clear
4:32 PM 28.4 °F 20.4 °F 26.6 °F 93% 29.89 in 5.0 mi East 8.1 mph - N/A   Clear
4:53 PM 28.4 °F 20.4 °F 24.8 °F 86% 29.90 in 5.0 mi ESE 8.1 mph - N/A   Clear
5:13 PM 28.4 °F 20.4 °F 24.8 °F 86% 29.90 in 5.0 mi ESE 8.1 mph - N/A   Clear
5:32 PM 28.4 °F 19.7 °F 24.8 °F 86% 29.90 in 7.0 mi ESE 9.2 mph - N/A   Clear
5:53 PM 28.4 °F 19.7 °F 26.6 °F 93% 29.90 in 7.0 mi East 9.2 mph - N/A   Clear
6:13 PM 28.4 °F 21.2 °F 24.8 °F 86% 29.92 in 7.0 mi East 6.9 mph - N/A   Clear
6:32 PM 28.4 °F 21.2 °F 24.8 °F 86% 29.93 in 7.0 mi ESE 6.9 mph - N/A   Clear
6:53 PM 28.4 °F 19.1 °F 24.8 °F 86% 29.95 in 5.0 mi ESE 10.4 mph - N/A   Clear
7:13 PM 28.4 °F 22.2 °F 24.8 °F 86% 29.97 in 3.0 mi ESE 5.8 mph - N/A Snow Light Snow
7:32 PM 26.6 °F 20.0 °F 24.8 °F 93% 29.97 in 2.5 mi ESE 5.8 mph - 0.01 in Snow Light Snow
7:53 PM 26.6 °F 20.0 °F 24.8 °F 93% 29.96 in 1.0 mi East 5.8 mph - 0.01 in Snow Snow
8:13 PM 26.6 °F 20.0 °F 24.8 °F 93% 29.97 in 1.5 mi East 5.8 mph - N/A Snow Light Snow
8:33 PM 26.6 °F 20.0 °F 24.8 °F 93% 29.97 in 0.8 mi East 5.8 mph - N/A Snow Snow
8:53 PM 26.6 °F 19.1 °F 24.8 °F 93% 29.96 in 0.5 mi East 6.9 mph - 0.05 in Snow Snow
9:13 PM 26.6 °F 19.1 °F 24.8 °F 93% 29.98 in 1.2 mi ESE 6.9 mph - 0.02 in Snow Light Snow
9:33 PM 26.6 °F 20.0 °F 24.8 °F 93% 29.97 in 1.0 mi ESE 5.8 mph - 0.05 in Snow Snow
9:53 PM 26.6 °F 19.1 °F 24.8 °F 93% 29.98 in 1.5 mi SE 6.9 mph - 0.07 in Snow Light Snow
10:13 PM 26.6 °F 19.1 °F 24.8 °F 93% 29.97 in 1.0 mi ESE 6.9 mph - 0.01 in Snow Snow
10:53 PM 26.6 °F 21.2 °F 24.8 °F 93% 29.95 in 2.0 mi East 4.6 mph - 0.03 in Snow Light Snow
11:12 PM 26.6 °F 21.2 °F 24.8 °F 93% 29.95 in 3.0 mi ESE 4.6 mph - N/A Snow Light Snow
11:33 PM 26.6 °F 18.2 °F 24.8 °F 93% 29.95 in 4.0 mi ESE 8.1 mph - 0.01 in Snow Light Snow
11:53 PM 26.6 °F 21.2 °F 24.8 °F 93% 29.95 in 4.0 mi ESE 4.6 mph - 0.01 in Snow Light Snow